Time;durP1;ratioP1;P1;durP2;ratioP2;P2;SDS_P1;SDS_P2;PMS_P1;PMS_P2;Temp;Humidity;BMP_temperature;BMP_pressure;BME280_temperature;BME280_humidity;BME280_pressure;Samples;Min_cycle;Max_cycle;Signal;HPM_P1;HPM_P2
2024/01/21 00:01:05;;;;;;;1.73;1.63;;;;;;;23.25;100.00;56616.03;5071840;28;20260;-72
2024/01/21 00:03:32;;;;;;;1.38;1.30;;;;;;;-142.91;100.00;56616.03;5081556;28;20500;-72
2024/01/21 00:05:58;;;;;;;1.80;1.33;;;;;;;33.65;100.00;56616.03;5071553;28;20330;-76
2024/01/21 00:08:25;;;;;;;1.10;1.10;;;;;;;-142.91;100.00;56616.03;5071431;28;20277;-76
2024/01/21 00:10:51;;;;;;;1.40;1.30;;;;;;;44.04;100.00;56616.03;5070089;28;20316;-74
2024/01/21 00:13:18;;;;;;;3.10;1.30;;;;;;;-142.91;100.00;56616.03;5071349;28;20282;-72
2024/01/21 00:15:44;;;;;;;1.58;1.17;;;;;;;;;;5061942;28;20555;-72
2024/01/21 00:18:12;;;;;;;1.15;0.98;;;;;;;;;;5065841;28;20252;-74
2024/01/21 00:20:39;;;;;;;1.20;1.20;;;;;;;44.04;100.00;56616.03;5062899;28;20234;-73
2024/01/21 00:23:05;;;;;;;1.02;1.00;;;;;;;;;;5070787;28;20720;-73
2024/01/21 00:25:32;;;;;;;0.98;0.98;;;;;;;-142.91;100.00;56616.03;5071552;28;20312;-75
2024/01/21 00:27:58;;;;;;;1.10;1.10;;;;;;;;;;5070904;28;20309;-73
2024/01/21 00:30:25;;;;;;;1.55;1.45;;;;;;;64.84;100.00;56616.03;5056975;28;20306;-74
2024/01/21 00:32:50;;;;;;;1.42;1.42;;;;;;;-142.91;100.00;56616.03;5052641;28;20257;-73
2024/01/21 00:35:18;;;;;;;1.05;1.05;;;;;;;64.84;100.00;56616.03;5061115;28;20203;-73
2024/01/21 00:37:45;;;;;;;1.63;1.52;;;;;;;-142.91;100.00;56616.03;5068350;28;20289;-74
2024/01/21 00:40:12;;;;;;;1.33;1.33;;;;;;;23.25;100.00;56616.03;5069792;28;20301;-74
2024/01/21 00:42:39;;;;;;;2.10;2.00;;;;;;;23.26;100.00;56616.03;5069687;28;20291;-72
2024/01/21 00:45:07;;;;;;;1.95;1.85;;;;;;;-142.91;100.00;56616.03;5069848;28;20233;-74
2024/01/21 00:47:34;;;;;;;1.50;1.40;;;;;;;-142.91;100.00;56616.03;5070478;28;20234;-73
2024/01/21 00:50:00;;;;;;;1.70;1.60;;;;;;;-142.91;100.00;56616.03;5070851;28;20289;-73
2024/01/21 00:52:28;;;;;;;2.35;2.15;;;;;;;-142.91;100.00;56616.03;5070613;28;20230;-75
2024/01/21 00:54:55;;;;;;;2.33;2.20;;;;;;;-142.91;100.00;56616.03;5070964;28;20234;-73
2024/01/21 00:57:22;;;;;;;2.58;1.95;;;;;;;-142.91;100.00;56616.03;5070125;28;20680;-72
2024/01/21 00:59:48;;;;;;;2.40;2.30;;;;;;;-142.91;100.00;56616.03;5070937;28;20242;-73
2024/01/21 01:02:15;;;;;;;2.42;2.25;;;;;;;-142.91;100.00;56616.03;5083273;28;20343;-73
2024/01/21 01:04:42;;;;;;;2.90;2.70;;;;;;;-142.91;100.00;56616.03;5070617;28;20210;-74
2024/01/21 01:07:08;;;;;;;3.00;2.78;;;;;;;33.65;100.00;56616.03;5070615;28;20313;-74
2024/01/21 01:09:36;;;;;;;2.80;2.60;;;;;;;23.25;100.00;56616.03;5057811;28;20207;-74
2024/01/21 01:12:03;;;;;;;2.75;2.55;;;;;;;-142.91;100.00;56616.03;5070778;28;20202;-74
2024/01/21 01:14:30;;;;;;;2.70;2.58;;;;;;;-142.91;100.00;56616.03;5081584;28;20691;-73
2024/01/21 01:16:56;;;;;;;2.03;1.92;;;;;;;-142.91;100.00;56616.03;5063439;28;20234;-74
2024/01/21 01:19:23;;;;;;;2.55;2.42;;;;;;;-142.91;100.00;56616.03;5064837;28;20234;-73
2024/01/21 01:21:50;;;;;;;2.90;2.70;;;;;;;-142.91;100.00;56616.03;5070087;28;20250;-74
2024/01/21 01:24:19;;;;;;;2.97;2.78;;;;;;;-142.91;100.00;56616.03;5069214;28;20263;-75
2024/01/21 01:26:47;;;;;;;2.90;2.25;;;;;;;-142.91;100.00;56616.03;5070003;28;20230;-74
2024/01/21 01:29:14;;;;;;;2.75;2.55;;;;;;;;;;5068160;28;20198;-72
2024/01/21 01:31:42;;;;;;;2.60;2.40;;;;;;;-142.91;100.00;56616.03;5058465;28;20241;-73
2024/01/21 01:34:10;;;;;;;2.03;1.92;;;;;;;-142.91;100.00;56616.03;5069727;28;20194;-75
2024/01/21 01:36:37;;;;;;;1.80;1.70;;;;;;;-142.91;100.00;56616.03;5070156;28;20202;-72
2024/01/21 01:39:03;;;;;;;2.08;1.98;;;;;;;-142.91;100.00;56616.03;5069348;28;20299;-74
2024/01/21 01:41:30;;;;;;;2.00;1.90;;;;;;;-142.91;100.00;56616.03;5070121;28;20234;-73
2024/01/21 01:43:58;;;;;;;2.40;1.45;;;;;;;-142.91;100.00;56616.03;5069268;28;20814;-72
2024/01/21 01:46:25;;;;;;;2.35;1.48;;;;;;;-142.91;100.00;56616.03;5062048;28;20206;-73
2024/01/21 01:48:52;;;;;;;1.00;1.00;;;;;;;23.25;100.00;56616.03;5056566;28;21039;-72
2024/01/21 01:51:19;;;;;;;2.85;1.67;;;;;;;-142.91;100.00;56616.03;5069542;28;20727;-73
2024/01/21 01:53:46;;;;;;;1.20;1.13;;;;;;;;;;5081769;28;20306;-74
2024/01/21 01:56:13;;;;;;;1.30;1.30;;;;;;;-142.91;100.00;56616.03;5069391;28;20587;-73
2024/01/21 01:58:41;;;;;;;1.23;1.23;;;;;;;-142.91;100.00;56616.03;5069441;28;20253;-73
2024/01/21 02:01:09;;;;;;;1.40;1.30;;;;;;;-142.91;100.00;56616.03;5079383;28;20244;-73
2024/01/21 02:03:36;;;;;;;1.35;1.25;;;;;;;-142.91;100.00;56616.03;5072009;28;20653;-72
2024/01/21 02:06:03;;;;;;;0.90;0.90;;;;;;;-142.91;100.00;56616.03;5069646;28;20297;-73
2024/01/21 02:08:29;;;;;;;1.10;1.10;;;;;;;-142.91;100.00;56616.03;5069124;28;20305;-73
2024/01/21 02:10:56;;;;;;;3.13;1.35;;;;;;;-142.91;100.00;56616.03;5067191;28;20323;-73
2024/01/21 02:13:22;;;;;;;2.35;1.27;;;;;;;-142.91;100.00;56616.03;5069102;28;20222;-72
2024/01/21 02:15:49;;;;;;;1.30;1.20;;;;;;;-142.91;100.00;56616.03;5069057;28;20275;-74
2024/01/21 02:18:17;;;;;;;1.08;1.08;;;;;;;-142.91;100.00;56616.03;5069919;28;20707;-73
2024/01/21 02:20:44;;;;;;;1.60;1.50;;;;;;;-142.91;100.00;56616.03;5074996;28;20308;-74
2024/01/21 02:23:12;;;;;;;0.70;0.70;;;;;;;-142.91;100.00;56616.03;5072198;28;20281;-73
2024/01/21 02:25:38;;;;;;;1.40;1.30;;;;;;;-142.91;100.00;56616.03;5072925;28;20293;-72
2024/01/21 02:28:05;;;;;;;0.90;0.90;;;;;;;-142.91;100.00;56616.03;5073139;28;20254;-72
2024/01/21 02:30:32;;;;;;;1.00;1.00;;;;;;;-142.91;100.00;56616.03;5071786;28;20290;-72
2024/01/21 02:32:58;;;;;;;1.25;1.20;;;;;;;-142.91;100.00;56616.03;5067919;28;20632;-72
2024/01/21 02:35:25;;;;;;;0.90;0.90;;;;;;;-142.91;100.00;56616.03;5063820;28;20293;-73
2024/01/21 02:37:51;;;;;;;1.80;1.42;;;;;;;-142.91;100.00;56616.03;5071295;28;20641;-74
2024/01/21 02:40:19;;;;;;;1.20;1.10;;;;;;;-142.91;100.00;56616.03;5072354;28;20293;-72
2024/01/21 02:42:46;;;;;;;1.10;1.10;;;;;;;-142.91;100.00;56616.03;5085169;28;20297;-72
2024/01/21 02:45:13;;;;;;;1.08;1.08;;;;;;;-142.91;100.00;56616.03;5072843;28;20249;-73
2024/01/21 02:47:39;;;;;;;1.60;1.10;;;;;;;-142.91;100.00;56616.03;5072622;28;20268;-73
2024/01/21 02:50:07;;;;;;;0.90;0.90;;;;;;;-142.91;100.00;56616.03;5059873;28;20230;-73
2024/01/21 02:52:33;;;;;;;1.13;1.02;;;;;;;-142.91;100.00;56616.03;5073384;28;20238;-73
2024/01/21 02:55:00;;;;;;;1.00;1.00;;;;;;;23.25;100.00;56616.03;5067207;28;20282;-73
2024/01/21 02:57:28;;;;;;;0.90;0.90;;;;;;;-142.91;100.00;56616.03;5065399;28;20285;-75
2024/01/21 02:59:55;;;;;;;1.25;1.25;;;;;;;-142.91;100.00;56616.03;5067279;28;20227;-71
2024/01/21 03:02:21;;;;;;;1.02;1.02;;;;;;;-142.91;100.00;56616.03;5053478;28;20712;-74
2024/01/21 03:04:48;;;;;;;1.20;1.10;;;;;;;-142.91;100.00;56616.03;5071770;28;20294;-73
2024/01/21 03:07:15;;;;;;;1.10;1.10;;;;;;;-142.91;100.00;56616.03;5072863;28;20305;-73
2024/01/21 03:09:41;;;;;;;1.50;1.17;;;;;;;-142.91;100.00;56616.03;5066982;28;20282;-73
2024/01/21 03:12:08;;;;;;;1.20;1.10;;;;;;;-142.91;100.00;56616.03;5054061;28;20218;-73
2024/01/21 03:14:36;;;;;;;1.23;1.13;;;;;;;-142.91;100.00;56616.03;5066866;28;20272;-73
2024/01/21 03:17:03;;;;;;;1.40;1.30;;;;;;;-142.91;100.00;56616.03;5065920;28;20286;-72
2024/01/21 03:19:30;;;;;;;1.48;1.45;;;;;;;-142.91;100.00;56616.03;5072156;28;20228;-73
2024/01/21 03:21:56;;;;;;;1.00;1.00;;;;;;;-142.91;100.00;56616.03;5072072;28;20309;-73
2024/01/21 03:24:23;;;;;;;1.15;1.15;;;;;;;-142.91;100.00;56616.03;5071840;28;20289;-72
2024/01/21 03:26:50;;;;;;;1.55;1.10;;;;;;;-142.91;100.00;56616.03;5072266;28;20294;-72
2024/01/21 03:29:16;;;;;;;1.13;1.13;;;;;;;-142.91;100.00;56616.03;5072047;28;20259;-72
2024/01/21 03:31:44;;;;;;;0.90;0.90;;;;;;;-142.91;100.00;56616.03;5071946;28;20774;-73
2024/01/21 03:34:11;;;;;;;1.00;1.00;;;;;;;-142.91;100.00;56616.03;5071627;28;20229;-72
2024/01/21 03:36:37;;;;;;;0.80;0.80;;;;;;;-142.91;100.00;56616.03;5071689;28;20285;-72
2024/01/21 03:39:04;;;;;;;0.90;0.90;;;;;;;-142.91;100.00;56616.03;5072013;28;20241;-74
2024/01/21 03:41:31;;;;;;;1.00;1.00;;;;;;;-142.91;100.00;56616.03;5071959;28;20238;-74
2024/01/21 03:43:58;;;;;;;1.17;0.90;;;;;;;-142.91;100.00;56616.03;5052404;28;20238;-73
2024/01/21 03:46:25;;;;;;;1.27;1.17;;;;;;;-142.91;100.00;56616.03;5065836;28;20234;-73
2024/01/21 03:48:53;;;;;;;5.15;0.73;;;;;;;-142.91;100.00;56616.03;5071646;28;20273;-74
2024/01/21 03:51:20;;;;;;;1.00;0.95;;;;;;;-142.91;100.00;56616.03;5071327;28;20317;-73
2024/01/21 03:53:46;;;;;;;0.82;0.77;;;;;;;-142.91;100.00;56616.03;5071758;28;20225;-73
2024/01/21 03:56:17;;;;;;;2.45;1.42;;;;;;;-142.91;100.00;56616.03;5071213;28;20294;-72
2024/01/21 03:58:44;;;;;;;1.95;1.40;;;;;;;-142.91;100.00;56616.03;5071476;28;20743;-73
2024/01/21 04:01:11;;;;;;;2.63;1.65;;;;;;;-142.91;100.00;56616.03;5071190;28;20287;-74
2024/01/21 04:03:38;;;;;;;2.75;1.80;;;;;;;-142.91;100.00;56616.03;5072245;28;20252;-74
2024/01/21 04:06:06;;;;;;;2.10;1.88;;;;;;;-142.91;100.00;56616.03;5071599;28;20204;-73
2024/01/21 04:08:33;;;;;;;2.05;1.90;;;;;;;-142.91;100.00;56616.03;5071624;28;20256;-74
2024/01/21 04:11:00;;;;;;;4.90;2.22;;;;;;;-142.91;100.00;56616.03;5071421;28;20194;-71
2024/01/21 04:13:26;;;;;;;2.13;1.92;;;;;;;-142.91;100.00;56616.03;5071677;28;20285;-72
2024/01/21 04:15:53;;;;;;;2.58;2.38;;;;;;;-142.91;100.00;56616.03;5071667;28;20241;-73
2024/01/21 04:18:20;;;;;;;2.30;2.20;;;;;;;-142.91;100.00;56616.03;5072423;28;20195;-73
2024/01/21 04:20:46;;;;;;;7.10;2.67;;;;;;;-142.91;100.00;56616.03;5070981;28;21162;-73
2024/01/21 04:23:14;;;;;;;2.40;2.25;;;;;;;-142.91;100.00;56616.03;5071593;28;20238;-72
2024/01/21 04:25:41;;;;;;;6.35;2.17;;;;;;;-142.91;100.00;56616.03;5058788;28;20284;-74
2024/01/21 04:28:08;;;;;;;3.25;2.72;;;;;;;-142.91;100.00;56616.03;5071371;28;20792;-74
2024/01/21 04:30:35;;;;;;;2.65;2.20;;;;;;;-142.91;100.00;56616.03;5069222;28;20727;-74
2024/01/21 04:33:02;;;;;;;4.63;2.33;;;;;;;-142.91;100.00;56616.03;5059391;28;20261;-72
2024/01/21 04:35:28;;;;;;;2.35;2.15;;;;;;;-142.91;100.00;56616.03;5066732;28;20237;-73
2024/01/21 04:37:55;;;;;;;2.10;1.90;;;;;;;-142.91;100.00;56616.03;5068837;28;20306;-73
2024/01/21 04:40:23;;;;;;;2.25;2.15;;;;;;;-142.91;100.00;56616.03;5065895;28;20278;-73
2024/01/21 04:42:49;;;;;;;2.75;2.55;;;;;;;-142.91;100.00;56616.03;5061087;28;20642;-72
2024/01/21 04:45:17;;;;;;;3.85;2.20;;;;;;;-142.91;100.00;56616.03;5068484;28;20687;-72
2024/01/21 04:47:44;;;;;;;3.80;2.40;;;;;;;-142.91;100.00;56616.03;5070729;28;20711;-72
2024/01/21 04:50:11;;;;;;;3.10;2.53;;;;;;;-142.91;100.00;56616.03;5070190;28;20230;-73
2024/01/21 04:52:38;;;;;;;2.55;2.35;;;;;;;-142.91;100.00;56616.03;5070310;28;20206;-74
2024/01/21 04:55:06;;;;;;;2.75;2.55;;;;;;;-142.91;100.00;56616.03;5069467;28;20731;-73
2024/01/21 04:57:34;;;;;;;2.55;2.35;;;;;;;-142.91;100.00;56616.03;5071129;28;20230;-73
2024/01/21 05:00:00;;;;;;;3.20;2.40;;;;;;;-142.91;100.00;56616.03;5070229;28;20650;-75
2024/01/21 05:02:27;;;;;;;2.78;2.28;;;;;;;-142.91;100.00;56616.03;5070597;28;20285;-73
2024/01/21 05:04:53;;;;;;;2.72;2.47;;;;;;;-142.91;100.00;56616.03;5069975;28;20297;-72
2024/01/21 05:07:20;;;;;;;3.42;3.13;;;;;;;-142.91;100.00;56616.03;5070158;28;20234;-72
2024/01/21 05:09:47;;;;;;;2.33;2.10;;;;;;;-142.91;100.00;56616.03;5069287;28;20240;-73
2024/01/21 05:12:13;;;;;;;5.83;2.50;;;;;;;-142.91;100.00;56616.03;5070056;28;20719;-73
2024/01/21 05:14:42;;;;;;;9.85;2.42;;;;;;;-142.91;100.00;56616.03;5070363;28;20241;-72
2024/01/21 05:17:08;;;;;;;4.03;2.80;;;;;;;-142.91;100.00;56616.03;5070147;28;20237;-73
2024/01/21 05:19:35;;;;;;;4.25;3.08;;;;;;;-142.91;100.00;56616.03;5058190;28;20687;-74
2024/01/21 05:22:02;;;;;;;3.17;2.78;;;;;;;-142.91;100.00;56616.03;5070318;28;20253;-78
2024/01/21 05:24:29;;;;;;;3.15;2.90;;;;;;;-142.91;100.00;56616.03;5057754;28;20217;-73
2024/01/21 05:26:56;;;;;;;3.45;2.55;;;;;;;-142.91;100.00;56616.03;5069939;28;20229;-72
2024/01/21 05:29:22;;;;;;;4.07;2.47;;;;;;;-142.91;100.00;56616.03;5070329;28;20219;-73
2024/01/21 05:31:50;;;;;;;2.97;2.78;;;;;;;-142.91;100.00;56616.03;5057410;28;20290;-73
2024/01/21 05:34:17;;;;;;;2.95;2.65;;;;;;;-142.91;100.00;56616.03;5070676;28;20297;-73
2024/01/21 05:36:44;;;;;;;3.53;2.95;;;;;;;-142.91;100.00;56616.03;5069779;28;20290;-74
2024/01/21 05:39:10;;;;;;;3.47;3.08;;;;;;;-142.91;100.00;56616.03;5082148;28;20429;-73
2024/01/21 05:41:37;;;;;;;3.90;3.30;;;;;;;;;;5069411;28;20233;-73
2024/01/21 05:44:03;;;;;;;4.03;2.90;;;;;;;-142.91;100.00;56616.03;5063468;28;20234;-73
2024/01/21 05:46:30;;;;;;;5.28;3.00;;;;;;;-142.91;100.00;56616.03;5065217;28;20290;-74
2024/01/21 05:48:58;;;;;;;4.40;3.40;;;;;;;-142.91;100.00;56616.03;5070012;28;20317;-74
2024/01/21 05:51:24;;;;;;;3.90;3.60;;;;;;;-142.91;100.00;56616.03;5069619;28;20727;-73
2024/01/21 05:53:52;;;;;;;3.40;3.10;;;;;;;-142.91;100.00;56616.03;5071237;28;20244;-72
2024/01/21 05:56:19;;;;;;;3.42;3.13;;;;;;;-142.91;100.00;56616.03;5070312;28;20230;-74
2024/01/21 05:58:45;;;;;;;2.95;2.72;;;;;;;-142.91;100.00;56616.03;5074378;28;20692;-72
2024/01/21 06:01:12;;;;;;;3.05;2.83;;;;;;;-142.91;100.00;56616.03;5073652;28;20684;-74
2024/01/21 06:03:39;;;;;;;4.68;3.50;;;;;;;-142.91;100.00;56616.03;5074615;28;20237;-73
2024/01/21 06:06:06;;;;;;;4.07;3.28;;;;;;;;;;5074013;28;20241;-75
2024/01/21 06:08:33;;;;;;;4.93;3.72;;;;;;;-142.91;100.00;56616.03;5074253;28;20254;-75
2024/01/21 06:10:59;;;;;;;3.95;3.00;;;;;;;-142.91;100.00;56616.03;5073787;28;20285;-73
2024/01/21 06:13:26;;;;;;;3.33;3.03;;;;;;;-142.91;100.00;56616.03;5074116;28;20232;-74
2024/01/21 06:15:54;;;;;;;3.35;3.05;;;;;;;-142.91;100.00;56616.03;5074122;28;20702;-75
2024/01/21 06:18:21;;;;;;;3.38;3.08;;;;;;;-142.91;100.00;56616.03;5073433;28;20203;-75
2024/01/21 06:20:47;;;;;;;3.72;2.80;;;;;;;23.27;100.00;56616.03;5073118;28;20799;-74
2024/01/21 06:23:15;;;;;;;3.63;3.33;;;;;;;23.90;100.00;56616.03;5064574;28;20282;-73
2024/01/21 06:25:42;;;;;;;5.38;3.63;;;;;;;189.72;100.00;56616.03;5071067;28;20290;-73
2024/01/21 06:28:08;;;;;;;3.45;3.25;;;;;;;;;;5073517;28;20715;-74
2024/01/21 06:30:35;;;;;;;3.92;3.47;;;;;;;;;;5068706;28;20285;-77
2024/01/21 06:33:01;;;;;;;3.92;3.40;;;;;;;-142.91;100.00;56616.03;5061640;28;20293;-74
2024/01/21 06:35:28;;;;;;;3.80;3.50;;;;;;;-142.91;100.00;56616.03;5069952;28;20321;-74
2024/01/21 06:37:54;;;;;;;3.80;3.50;;;;;;;;;;5061332;28;20256;-74
2024/01/21 06:40:22;;;;;;;3.67;3.38;;;;;;;-142.91;100.00;56616.03;5067139;28;20290;-74
2024/01/21 06:42:49;;;;;;;3.85;2.97;;;;;;;-142.91;100.00;56616.03;5064454;28;20290;-73
2024/01/21 06:45:16;;;;;;;7.88;3.50;;;;;;;-142.91;100.00;56616.03;5071787;28;20195;-74
2024/01/21 06:47:43;;;;;;;3.30;3.00;;;;;;;;;;5073035;28;20677;-73
2024/01/21 06:50:10;;;;;;;3.28;3.08;;;;;;;-142.91;100.00;56616.03;5061722;28;20318;-74
2024/01/21 06:52:37;;;;;;;3.25;2.97;;;;;;;-142.91;100.00;56616.03;5072980;28;20233;-73
2024/01/21 06:55:04;;;;;;;3.17;2.97;;;;;;;-142.91;100.00;56616.03;5072892;28;20233;-73
2024/01/21 06:57:32;;;;;;;3.85;3.53;;;;;;;-142.91;100.00;56616.03;5072785;28;20214;-73
2024/01/21 06:59:59;;;;;;;4.25;3.88;;;;;;;-142.91;100.00;56616.03;5084525;28;20518;-73
2024/01/21 07:02:25;;;;;;;3.58;3.28;;;;;;;-142.91;100.00;56616.03;5072871;28;20285;-73
2024/01/21 07:04:52;;;;;;;4.95;3.92;;;;;;;-142.91;100.00;56616.03;5071911;28;20238;-73
2024/01/21 07:07:18;;;;;;;3.80;3.50;;;;;;;-142.91;100.00;56616.03;5071829;28;20226;-73
2024/01/21 07:09:45;;;;;;;5.93;3.83;;;;;;;;;;5071704;28;20261;-72
2024/01/21 07:12:11;;;;;;;4.20;3.90;;;;;;;;;;5072601;28;20252;-72
2024/01/21 07:14:39;;;;;;;4.40;4.03;;;;;;;-142.91;100.00;56616.03;5072632;28;20206;-71
2024/01/21 07:17:06;;;;;;;3.75;3.45;;;;;;;-142.91;100.00;56616.03;5073106;28;20296;-73
2024/01/21 07:19:33;;;;;;;3.63;3.30;;;;;;;-142.91;100.00;56616.03;5072299;28;20281;-73
2024/01/21 07:21:59;;;;;;;4.45;4.05;;;;;;;-142.91;100.00;56616.03;5072330;28;20265;-73
2024/01/21 07:24:26;;;;;;;5.55;4.13;;;;;;;-142.91;100.00;56616.03;5072797;28;20281;-71
2024/01/21 07:26:53;;;;;;;4.53;3.72;;;;;;;-142.91;100.00;56616.03;5072285;28;20659;-71
2024/01/21 07:29:19;;;;;;;4.18;3.35;;;;;;;-142.91;100.00;56616.03;5071966;28;20310;-73
2024/01/21 07:31:47;;;;;;;3.42;3.20;;;;;;;23.25;100.00;56616.03;5072569;28;20201;-72
2024/01/21 07:34:14;;;;;;;5.95;5.28;;;;;;;-142.91;100.00;56616.03;5072175;28;20226;-73
2024/01/21 07:36:40;;;;;;;4.95;4.53;;;;;;;-142.91;100.00;56616.03;5071468;28;20285;-73
2024/01/21 07:39:07;;;;;;;3.80;3.50;;;;;;;-142.91;100.00;56616.03;5060167;28;20617;-74
2024/01/21 07:41:34;;;;;;;4.25;3.85;;;;;;;-142.91;100.00;56616.03;5071777;28;20209;-73
2024/01/21 07:44:01;;;;;;;4.18;3.78;;;;;;;-142.91;100.00;56616.03;5071495;28;20308;-72
2024/01/21 07:46:27;;;;;;;3.70;3.40;;;;;;;-142.91;100.00;56616.03;5071004;28;20756;-73
2024/01/21 07:48:55;;;;;;;4.22;3.65;;;;;;;-142.91;100.00;56616.03;5070839;28;20325;-73
2024/01/21 07:51:22;;;;;;;3.75;3.45;;;;;;;-142.91;100.00;56616.03;5070720;28;20234;-74
2024/01/21 07:53:49;;;;;;;3.50;2.72;;;;;;;-142.91;100.00;56616.03;5072156;28;20202;-73
2024/01/21 07:56:16;;;;;;;3.42;3.22;;;;;;;-142.91;100.00;56616.03;5071476;28;20260;-73
2024/01/21 07:58:42;;;;;;;3.33;3.13;;;;;;;-142.91;100.00;56616.03;5071216;28;20754;-73
2024/01/21 08:01:10;;;;;;;2.50;2.40;;;;;;;-142.91;100.00;56616.03;5071340;28;20735;-73
2024/01/21 08:03:37;;;;;;;3.33;3.03;;;;;;;-142.91;100.00;56616.03;5069691;28;20233;-73
2024/01/21 08:06:07;;;;;;;2.92;2.45;;;;;;;-142.91;100.00;56616.03;5070860;28;20286;-73
2024/01/21 08:08:34;;;;;;;2.80;2.60;;;;;;;-142.91;100.00;56616.03;5071578;28;20202;-73
2024/01/21 08:11:00;;;;;;;3.10;2.85;;;;;;;;;;5071832;28;20195;-74
2024/01/21 08:13:27;;;;;;;3.05;2.75;;;;;;;23.90;100.00;56616.03;5066048;28;20645;-74
2024/01/21 08:15:54;;;;;;;2.95;2.63;;;;;;;-142.91;100.00;56616.03;5070993;28;20289;-74
2024/01/21 08:18:20;;;;;;;2.63;2.50;;;;;;;-142.91;100.00;56616.03;5071266;28;20261;-74
2024/01/21 08:20:47;;;;;;;2.78;2.55;;;;;;;-142.91;100.00;56616.03;5067847;28;20325;-74
2024/01/21 08:23:15;;;;;;;2.67;2.50;;;;;;;-142.91;100.00;56616.03;5059776;28;20237;-71
2024/01/21 08:25:42;;;;;;;3.03;2.83;;;;;;;-142.91;100.00;56616.03;5067465;28;20725;-74
2024/01/21 08:28:09;;;;;;;3.03;2.83;;;;;;;-142.91;100.00;56616.03;5067479;28;20310;-74
2024/01/21 08:30:35;;;;;;;3.20;3.00;;;;;;;-142.91;100.00;56616.03;5060286;28;20313;-73
2024/01/21 08:33:02;;;;;;;2.70;2.47;;;;;;;64.84;100.00;56616.03;5068064;28;20241;-73
2024/01/21 08:35:29;;;;;;;2.88;2.75;;;;;;;-142.91;100.00;56616.03;5069353;28;20281;-73
2024/01/21 08:37:55;;;;;;;2.83;2.63;;;;;;;-142.91;100.00;56616.03;5069342;28;20703;-73
2024/01/21 08:40:24;;;;;;;12.23;7.47;;;;;;;-142.91;100.00;56616.03;5069184;28;20218;-73
2024/01/21 08:42:51;;;;;;;4.07;3.78;;;;;;;-142.91;100.00;56616.03;5069632;28;20205;-73
2024/01/21 08:45:18;;;;;;;7.32;5.72;;;;;;;-142.91;100.00;56616.03;5060426;28;20245;-73
2024/01/21 08:47:45;;;;;;;4.28;3.20;;;;;;;-142.91;100.00;56616.03;5070613;28;20291;-73
2024/01/21 08:50:12;;;;;;;3.22;3.03;;;;;;;-142.91;100.00;56616.03;5069121;28;20312;-72
2024/01/21 08:52:39;;;;;;;6.03;4.65;;;;;;;-142.91;100.00;56616.03;5067362;28;20606;-73
2024/01/21 08:55:07;;;;;;;6.40;5.32;;;;;;;-142.91;100.00;56616.03;5069892;28;20296;-71
2024/01/21 08:57:35;;;;;;;17.20;10.05;;;;;;;-142.91;100.00;56616.03;5070302;28;20241;-72
2024/01/21 09:00:01;;;;;;;10.93;7.60;;;;;;;-142.91;100.00;56616.03;5069649;28;20281;-75
2024/01/21 09:02:28;;;;;;;4.32;3.92;;;;;;;-142.91;100.00;56616.03;5069841;28;20205;-73
2024/01/21 09:04:56;;;;;;;3.80;3.50;;;;;;;-142.91;100.00;56616.03;5070052;28;20217;-72
2024/01/21 09:07:22;;;;;;;7.13;2.85;;;;;;;-142.91;100.00;56616.03;5069333;28;20218;-72
2024/01/21 09:09:49;;;;;;;2.38;2.17;;;;;;;-142.91;100.00;56616.03;5070255;28;20320;-73
2024/01/21 09:12:15;;;;;;;2.50;2.40;;;;;;;-142.91;100.00;56616.03;5070685;28;20241;-73
2024/01/21 09:14:43;;;;;;;2.88;2.67;;;;;;;-142.91;100.00;56616.03;5070523;28;20305;-74
2024/01/21 09:17:10;;;;;;;2.70;2.50;;;;;;;-142.91;100.00;56616.03;5069713;28;20233;-73
2024/01/21 09:19:37;;;;;;;3.45;2.45;;;;;;;-142.91;100.00;56616.03;5070814;28;20290;-72
2024/01/21 09:22:04;;;;;;;2.42;2.30;;;;;;;-142.91;100.00;56616.03;5070726;28;20233;-72
2024/01/21 09:24:31;;;;;;;2.70;2.50;;;;;;;-142.91;100.00;56616.03;5070596;28;20241;-74
2024/01/21 09:26:57;;;;;;;2.95;2.75;;;;;;;-142.91;100.00;56616.03;5070196;28;20281;-73
2024/01/21 09:29:24;;;;;;;2.75;2.55;;;;;;;-142.91;100.00;56616.03;5070509;28;20678;-73
2024/01/21 09:31:55;;;;;;;2.70;2.45;;;;;;;-142.91;100.00;56616.03;5069743;28;20234;-73
2024/01/21 09:34:22;;;;;;;2.90;2.67;;;;;;;;;;5070103;28;20202;-73
2024/01/21 09:36:48;;;;;;;2.40;2.22;;;;;;;;;;5070177;28;20297;-73
2024/01/21 09:39:15;;;;;;;6.38;2.95;;;;;;;;;;5062083;28;20286;-73
2024/01/21 09:41:43;;;;;;;2.80;2.63;;;;;;;;;;5065525;28;20289;-74
2024/01/21 09:44:11;;;;;;;2.88;2.60;;;;;;;;;;5061785;28;20289;-74
2024/01/21 09:46:37;;;;;;;4.05;2.88;;;;;;;;;;5053208;28;20289;-73
2024/01/21 09:49:07;;;;;;;3.05;2.88;;;;;;;;;;5070003;28;20723;-73
2024/01/21 09:51:37;;;;;;;4.07;3.47;;;;;;;;;;5069880;28;20251;-73
2024/01/21 09:54:04;;;;;;;2.65;2.45;;;;;;;;;;5070119;28;20687;-74
2024/01/21 09:56:31;;;;;;;2.97;2.00;;;;;;;-142.91;100.00;56616.03;5069847;28;20633;-73
2024/01/21 09:59:00;;;;;;;3.38;2.42;;;;;;;-142.91;100.00;56616.03;5070109;28;20252;-73
2024/01/21 10:01:26;;;;;;;2.45;2.25;;;;;;;-142.91;100.00;56616.03;5070393;28;20293;-72
2024/01/21 10:03:53;;;;;;;3.10;2.53;;;;;;;-142.91;100.00;56616.03;5070231;28;20311;-72
2024/01/21 10:06:22;;;;;;;2.83;2.25;;;;;;;-142.91;100.00;56616.03;5057194;28;20244;-73
2024/01/21 10:08:49;;;;;;;2.83;2.67;;;;;;;-142.91;100.00;56616.03;5058451;28;20684;-74
2024/01/21 10:11:16;;;;;;;2.70;2.50;;;;;;;-142.91;100.00;56616.03;5067875;28;20214;-74
2024/01/21 10:13:43;;;;;;;3.03;2.72;;;;;;;-142.91;100.00;56616.03;5069920;28;20253;-74
2024/01/21 10:16:10;;;;;;;3.70;3.40;;;;;;;-142.91;100.00;56616.03;5069913;28;20260;-74
2024/01/21 10:18:37;;;;;;;4.30;3.20;;;;;;;-142.91;100.00;56616.03;5069993;28;20672;-75
2024/01/21 10:21:05;;;;;;;3.38;3.08;;;;;;;-142.91;100.00;56616.03;5068781;28;20215;-73
2024/01/21 10:23:35;;;;;;;3.97;2.90;;;;;;;-142.91;100.00;56616.03;5070175;28;20202;-75
2024/01/21 10:26:02;;;;;;;2.75;2.55;;;;;;;-142.91;100.00;56616.03;5069358;28;20230;-74
2024/01/21 10:28:32;;;;;;;3.35;2.97;;;;;;;28.45;100.00;56616.03;5070159;28;20234;-73
2024/01/21 10:30:59;;;;;;;3.47;3.17;;;;;;;-142.91;100.00;56616.03;5067590;28;20249;-72
2024/01/21 10:33:26;;;;;;;3.50;3.20;;;;;;;-142.91;100.00;56616.03;5067999;28;20199;-73
2024/01/21 10:35:56;;;;;;;3.05;2.80;;;;;;;-142.91;100.00;56616.03;5067923;28;20198;-73
2024/01/21 10:38:24;;;;;;;3.05;2.85;;;;;;;-142.91;100.00;56616.03;5067670;28;20660;-73
2024/01/21 10:40:54;;;;;;;3.15;2.95;;;;;;;-142.91;100.00;56616.03;5067813;28;20719;-73
2024/01/21 10:43:21;;;;;;;2.80;2.60;;;;;;;-142.91;100.00;56616.03;5056388;28;20199;-73
2024/01/21 10:45:47;;;;;;;3.10;2.90;;;;;;;-142.91;100.00;56616.03;5063068;28;20306;-73
2024/01/21 10:48:14;;;;;;;3.15;2.92;;;;;;;-142.91;100.00;56616.03;5067867;28;20254;-74
2024/01/21 10:50:42;;;;;;;3.63;3.33;;;;;;;-142.91;100.00;56616.03;5063127;28;20269;-73
2024/01/21 10:53:11;;;;;;;4.03;3.55;;;;;;;-142.91;100.00;56616.03;5061158;28;20203;-73
2024/01/21 10:55:40;;;;;;;2.92;2.72;;;;;;;-142.91;100.00;56616.03;5072143;28;20289;-72
2024/01/21 10:58:09;;;;;;;3.45;3.05;;;;;;;-142.91;100.00;56616.03;5073078;28;20216;-75
2024/01/21 11:00:36;;;;;;;3.38;3.17;;;;;;;-142.91;100.00;56616.03;5072052;28;20293;-74
2024/01/21 11:03:23;;;;;;;3.95;3.70;;;;;;;-142.91;100.00;56616.03;5072507;28;20194;-73
2024/01/21 11:05:53;;;;;;;3.50;3.20;;;;;;;24.55;100.00;56616.03;5061165;28;20209;-74
2024/01/21 11:08:23;;;;;;;3.70;3.40;;;;;;;-142.91;100.00;56616.03;5067142;28;20282;-75
2024/01/21 11:10:53;;;;;;;4.07;3.45;;;;;;;-142.91;100.00;56616.03;5068148;28;20225;-73
2024/01/21 11:13:38;;;;;;;3.30;2.80;;;;;;;;;;5065675;28;20201;-74
2024/01/21 11:16:07;;;;;;;3.30;3.00;;;;;;;-142.91;100.00;56616.03;5071367;28;20671;-74
2024/01/21 11:18:35;;;;;;;3.05;2.85;;;;;;;-142.91;100.00;56616.03;5073473;28;20651;-75
2024/01/21 11:21:02;;;;;;;3.05;2.85;;;;;;;-142.91;100.00;56616.03;5067420;28;20410;-75
2024/01/21 11:23:29;;;;;;;3.30;3.10;;;;;;;-142.91;100.00;56616.03;5064914;28;20206;-73